createdAt,value
2018-08-10T03:00:58.345Z,991.33
2018-08-10T03:01:58.603Z,991.33
2018-08-10T03:03:59.204Z,991.26
2018-08-10T03:04:59.561Z,991.31
2018-08-10T03:05:59.026Z,991.31
2018-08-10T03:06:59.335Z,991.32
2018-08-10T03:07:59.306Z,991.32
2018-08-10T03:08:57.814Z,991.34
2018-08-10T03:09:57.700Z,991.36
2018-08-10T03:10:57.814Z,991.39
2018-08-10T03:11:58.037Z,991.43
2018-08-10T03:12:58.165Z,991.45
2018-08-10T03:13:58.387Z,991.51
2018-08-10T03:14:58.590Z,991.50
2018-08-10T03:15:58.764Z,991.50
2018-08-10T03:16:58.903Z,991.50
2018-08-10T03:17:59.077Z,991.51
2018-08-10T03:18:59.228Z,991.49
2018-08-10T03:19:59.318Z,991.50
2018-08-10T03:20:59.553Z,991.52
2018-08-10T03:21:59.695Z,991.56
2018-08-10T03:22:59.894Z,991.54
2018-08-10T03:24:00.069Z,991.54
2018-08-10T03:25:00.164Z,991.58
2018-08-10T03:26:00.381Z,991.54
2018-08-10T03:27:00.480Z,991.58
2018-08-10T03:28:00.760Z,991.58
2018-08-10T03:29:00.851Z,991.61
2018-08-10T03:30:01.030Z,991.57
2018-08-10T03:31:01.205Z,991.61
2018-08-10T03:32:01.406Z,991.63
2018-08-10T03:33:01.548Z,991.65
2018-08-10T03:34:01.686Z,991.70
2018-08-10T03:35:01.879Z,991.67
2018-08-10T03:36:01.976Z,991.69
2018-08-10T03:37:02.200Z,991.67
2018-08-10T03:38:02.216Z,991.75
2018-08-10T03:39:02.510Z,991.77
2018-08-10T03:40:02.614Z,991.80
2018-08-10T03:41:02.753Z,991.81
2018-08-10T03:42:02.963Z,991.83
2018-08-10T03:43:03.155Z,991.80
2018-08-10T03:44:03.315Z,991.85
2018-08-10T03:45:03.542Z,991.86
2018-08-10T03:46:03.581Z,991.83
2018-08-10T03:47:03.815Z,991.85
2018-08-10T03:48:04.009Z,991.93
2018-08-10T03:49:04.112Z,991.89
2018-08-10T03:50:04.354Z,991.95
2018-08-10T03:51:04.484Z,991.95
2018-08-10T03:52:04.588Z,992.02
2018-08-10T03:53:04.802Z,992.04
2018-08-10T03:54:04.973Z,992.04
2018-08-10T03:55:05.176Z,992.03
2018-08-10T03:56:05.365Z,992.01
2018-08-10T03:57:05.492Z,992.04
2018-08-10T03:58:05.637Z,992.03
2018-08-10T03:59:05.835Z,992.05
2018-08-10T04:00:06.014Z,992.09
2018-08-10T04:01:06.335Z,992.06
2018-08-10T04:02:06.247Z,992.06
2018-08-10T04:03:06.527Z,992.09
2018-08-10T04:04:06.672Z,992.10
2018-08-10T04:05:06.804Z,992.14
2018-08-10T04:06:06.980Z,992.18
2018-08-10T04:07:07.105Z,992.22
2018-08-10T04:08:07.295Z,992.30
2018-08-10T04:09:07.469Z,992.29
2018-08-10T04:10:07.544Z,992.40
2018-08-10T04:11:07.883Z,992.43
2018-08-10T04:12:08.070Z,992.37
2018-08-10T04:13:08.142Z,992.41
2018-08-10T04:14:08.310Z,992.45
2018-08-10T04:15:08.495Z,992.50
2018-08-10T04:16:08.715Z,992.48
2018-08-10T04:17:08.746Z,992.55
2018-08-10T04:18:08.925Z,992.53
2018-08-10T04:19:09.164Z,992.58
2018-08-10T04:20:09.251Z,992.59
2018-08-10T04:21:09.533Z,992.65
2018-08-10T04:22:09.640Z,992.65
2018-08-10T04:23:09.737Z,992.64
2018-08-10T04:24:09.994Z,992.67
2018-08-10T04:25:10.272Z,992.68
2018-08-10T04:26:10.405Z,992.68
2018-08-10T04:27:10.468Z,992.68
2018-08-10T04:28:10.681Z,992.70
2018-08-10T04:29:10.847Z,992.76
2018-08-10T04:30:11.137Z,992.82
2018-08-10T04:31:11.166Z,992.81
2018-08-10T04:32:11.321Z,992.85
2018-08-10T04:33:11.588Z,992.84
2018-08-10T04:34:11.696Z,992.89
2018-08-10T04:35:11.945Z,992.84
2018-08-10T04:36:12.051Z,992.88
2018-08-10T04:37:12.196Z,992.92
2018-08-10T04:38:12.357Z,992.93
2018-08-10T04:39:12.527Z,993.01
2018-08-10T04:40:12.740Z,993.07
2018-08-10T04:41:12.977Z,993.13
2018-08-10T04:42:13.098Z,993.13
2018-08-10T04:43:13.271Z,993.17
2018-08-10T04:44:13.421Z,993.16
2018-08-10T04:45:13.536Z,993.24
2018-08-10T04:46:13.754Z,993.21
2018-08-10T04:47:13.924Z,993.26
2018-08-10T04:48:14.171Z,993.32
2018-08-10T04:49:14.319Z,993.29
2018-08-10T04:50:14.385Z,993.28
2018-08-10T04:51:14.634Z,993.32
2018-08-10T04:52:14.817Z,993.29
2018-08-10T04:53:14.891Z,993.32
2018-08-10T04:54:15.085Z,993.34
2018-08-10T04:55:15.367Z,993.34
2018-08-10T04:56:15.355Z,993.35
2018-08-10T04:57:15.576Z,993.42
2018-08-10T04:58:15.768Z,993.48
2018-08-10T04:59:15.932Z,993.49
2018-08-10T05:00:16.098Z,993.49
2018-08-10T05:01:16.210Z,993.51
2018-08-10T05:02:16.410Z,993.49
2018-08-10T05:03:16.627Z,993.51
2018-08-10T05:04:16.745Z,993.44
2018-08-10T05:05:16.941Z,993.43
2018-08-10T05:06:17.147Z,993.47
2018-08-10T05:07:17.315Z,993.42
2018-08-10T05:08:17.466Z,993.49
2018-08-10T05:09:17.598Z,993.45
2018-08-10T05:10:17.789Z,993.50
2018-08-10T05:11:18.013Z,993.47
2018-08-10T05:12:18.098Z,993.52
2018-08-10T05:13:18.309Z,993.51
2018-08-10T05:14:18.484Z,993.52
2018-08-10T05:15:18.696Z,993.55
2018-08-10T05:16:19.034Z,993.57
2018-08-10T05:17:19.025Z,993.56
2018-08-10T05:18:19.144Z,993.54
2018-08-10T05:19:19.356Z,993.54
2018-08-10T05:20:19.501Z,993.60
2018-08-10T05:21:19.607Z,993.63
2018-08-10T05:22:19.829Z,993.62
2018-08-10T05:23:20.126Z,993.68
2018-08-10T05:24:20.297Z,993.71
2018-08-10T05:25:20.379Z,993.70
2018-08-10T05:26:20.635Z,993.73
2018-08-10T05:27:22.441Z,993.77
2018-08-10T05:28:33.183Z,993.83
2018-08-10T05:29:23.918Z,993.78
2018-08-10T05:30:21.693Z,993.81
2018-08-10T05:31:24.178Z,993.80
2018-08-10T05:32:26.285Z,993.87
2018-08-10T05:33:24.242Z,993.87
2018-08-10T05:43:05.629Z,994.00
2018-08-10T06:05:41.215Z,994.49
2018-08-10T06:06:40.794Z,994.48
2018-08-10T08:09:21.054Z,995.82
2018-08-10T09:33:13.469Z,996.19
2018-08-10T09:47:01.473Z,996.04
2018-08-10T09:59:16.996Z,996.00
2018-08-10T10:00:13.868Z,996.00
2018-08-10T10:01:19.049Z,996.11
2018-08-10T10:05:57.588Z,996.02
2018-08-10T10:06:53.997Z,996.41
2018-08-10T10:38:56.814Z,996.25
2018-08-10T10:39:51.805Z,996.13
2018-08-10T10:41:49.031Z,996.18
2018-08-10T10:55:01.246Z,997.05
2018-08-10T10:58:58.800Z,997.06
2018-08-10T10:59:59.129Z,997.04
2018-08-10T11:00:55.846Z,997.02
2018-08-10T11:01:54.683Z,996.97
2018-08-10T11:02:54.811Z,996.92
2018-08-10T11:03:54.909Z,996.83
2018-08-10T11:04:55.211Z,996.94
2018-08-10T11:05:57.238Z,996.86
2018-08-10T11:06:55.967Z,996.78
2018-08-10T11:07:56.193Z,996.91
2018-08-10T11:08:56.192Z,996.97
2018-08-10T11:09:55.951Z,997.02
2018-08-10T11:10:56.865Z,997.07
2018-08-10T11:11:57.154Z,996.55
2018-08-10T11:13:56.877Z,996.07
2018-08-10T11:14:57.107Z,997.06
2018-08-10T11:15:57.384Z,995.97
2018-08-10T11:16:58.381Z,995.98
2018-08-10T11:17:57.633Z,996.61
2018-08-10T11:18:57.829Z,996.95
2018-08-10T11:20:59.261Z,996.19
2018-08-10T11:21:58.471Z,997.03
2018-08-10T11:22:59.202Z,996.29
2018-08-10T11:23:59.254Z,995.95
2018-08-10T11:25:00.597Z,995.92
2018-08-10T11:25:59.238Z,995.88
2018-08-10T11:27:00.019Z,995.90
2018-08-10T11:28:00.290Z,996.89
2018-08-10T11:29:33.507Z,996.81
2018-08-10T11:31:00.365Z,995.84
2018-08-10T11:32:00.751Z,995.88
2018-08-10T11:33:00.693Z,996.90
2018-08-10T11:34:01.326Z,996.11
2018-08-10T11:35:01.030Z,995.94
2018-08-10T11:36:01.296Z,996.33
2018-08-10T11:37:02.073Z,997.10
2018-08-10T11:38:05.306Z,997.01
2018-08-10T11:39:03.110Z,996.05
2018-08-10T11:40:01.944Z,996.03
2018-08-10T11:41:02.152Z,997.14
2018-08-10T11:42:02.561Z,996.48
2018-08-10T11:43:02.440Z,995.98
2018-08-10T11:44:02.871Z,997.09
2018-08-10T11:45:04.282Z,997.03
2018-08-10T11:46:03.745Z,996.04
2018-08-10T11:47:03.167Z,996.22
2018-08-10T11:48:03.202Z,996.05
2018-08-10T11:49:03.772Z,996.97
2018-08-10T12:03:43.175Z,996.96
2018-08-10T12:10:27.026Z,996.89
2018-08-10T12:11:02.853Z,996.95
2018-08-10T12:13:44.230Z,996.97
2018-08-10T12:14:42.615Z,996.88
2018-08-10T12:15:41.862Z,996.91
2018-08-10T12:16:42.134Z,996.93
2018-08-10T12:17:43.249Z,995.87
2018-08-10T12:18:42.283Z,996.56
2018-08-10T12:19:42.735Z,995.94
2018-08-10T12:20:42.720Z,995.84
2018-08-10T12:21:43.064Z,995.90
2018-08-10T12:22:43.125Z,997.07
2018-08-10T12:23:43.638Z,995.91
2018-08-10T12:24:43.391Z,995.85
2018-08-10T12:25:43.764Z,995.81
2018-08-10T12:26:43.658Z,995.89
2018-08-10T12:27:43.757Z,995.94
2018-08-10T12:28:44.075Z,995.75
2018-08-10T12:29:44.080Z,995.81
2018-08-10T12:30:44.309Z,996.88
2018-08-10T12:31:44.564Z,996.65
2018-08-10T12:32:44.647Z,996.49
2018-08-10T12:33:45.529Z,996.38
2018-08-10T12:34:45.591Z,996.25
2018-08-10T12:35:45.476Z,996.21
2018-08-10T12:37:46.725Z,996.21
2018-08-10T12:37:48.859Z,996.20
2018-08-10T12:38:48.140Z,996.15
2018-08-10T12:39:48.357Z,996.18
2018-08-10T12:40:48.454Z,996.16
2018-08-10T12:41:48.654Z,996.13
2018-08-10T12:42:49.118Z,996.10
2018-08-10T12:43:49.358Z,996.09
2018-08-10T12:44:49.452Z,996.14
2018-08-10T12:45:50.048Z,996.09
2018-08-10T12:46:50.360Z,996.06
2018-08-10T12:47:50.050Z,996.04
2018-08-10T12:48:50.412Z,995.96
2018-08-10T12:49:50.497Z,996.03
2018-08-10T12:51:51.627Z,995.96
2018-08-10T12:54:24.330Z,996.05
2018-08-10T12:58:54.024Z,996.04
2018-08-10T12:59:17.560Z,995.97
2018-08-10T13:00:17.433Z,995.92
2018-08-10T13:01:17.705Z,995.90
2018-08-10T13:03:18.750Z,995.89
2018-08-10T13:04:44.423Z,995.84
2018-08-10T13:06:55.143Z,995.90
2018-08-10T13:09:41.691Z,995.94
2018-08-10T13:13:25.512Z,995.71
2018-08-10T13:20:35.969Z,995.43
2018-08-10T13:23:38.018Z,995.63
2018-08-10T13:23:46.732Z,995.43
2018-08-10T13:26:02.679Z,995.34
2018-08-10T13:27:19.782Z,995.43
2018-08-10T13:27:54.822Z,995.41
2018-08-10T13:30:21.855Z,995.43
2018-08-10T13:31:14.383Z,995.35
2018-08-10T13:32:49.978Z,995.33
2018-08-10T13:33:49.628Z,995.36
2018-08-10T13:34:47.985Z,995.37
2018-08-10T13:35:46.127Z,995.55
2018-08-10T13:37:46.298Z,995.35
2018-08-10T13:38:46.648Z,995.35
2018-08-10T13:39:46.673Z,995.40
2018-08-10T13:40:47.830Z,995.40
2018-08-10T13:41:47.016Z,995.59
2018-08-10T13:42:47.871Z,995.53
2018-08-10T13:43:47.235Z,995.31
2018-08-10T13:44:47.375Z,995.26
2018-08-10T13:45:47.771Z,995.46
2018-08-10T13:46:48.008Z,995.17
2018-08-10T13:47:48.150Z,995.17
2018-08-10T13:48:48.239Z,995.24
2018-08-10T13:49:48.871Z,995.22
2018-08-10T13:50:48.919Z,995.27
2018-08-10T13:51:49.349Z,995.23
2018-08-10T13:52:49.794Z,995.25
2018-08-10T13:53:50.206Z,995.38
2018-08-10T13:54:49.344Z,995.37
2018-08-10T13:55:49.467Z,995.24
2018-08-10T13:56:49.793Z,995.21
2018-08-10T13:57:50.493Z,995.23
2018-08-10T13:58:50.199Z,995.25
2018-08-10T13:59:50.590Z,995.31
2018-08-10T14:00:50.364Z,995.44
2018-08-10T14:01:50.992Z,995.54
2018-08-10T14:02:50.887Z,995.52
2018-08-10T14:03:52.200Z,995.40
2018-08-10T14:04:52.671Z,995.51
2018-08-10T14:05:53.301Z,995.51
2018-08-10T14:06:51.493Z,995.15
2018-08-10T14:07:53.944Z,995.13
2018-08-10T14:08:52.859Z,995.15
2018-08-10T14:09:52.064Z,995.05
2018-08-10T14:10:52.105Z,995.09
2018-08-10T14:11:52.426Z,995.11
2018-08-10T14:12:52.566Z,995.08
2018-08-10T14:13:52.562Z,995.15
2018-08-10T14:14:53.672Z,995.16
2018-08-10T14:16:13.906Z,995.15
2018-08-10T14:19:30.021Z,995.18
2018-08-10T14:20:32.228Z,995.21
2018-08-10T14:21:31.759Z,995.15
2018-08-10T14:23:32.765Z,995.00
2018-08-10T14:24:32.676Z,995.04
2018-08-10T14:25:37.517Z,994.99
2018-08-10T14:26:35.764Z,995.07
2018-08-10T14:27:31.555Z,994.99
2018-08-10T14:28:47.547Z,995.03
2018-08-10T14:30:46.903Z,995.05
2018-08-10T14:31:32.269Z,995.10
2018-08-10T14:32:33.197Z,995.08
2018-08-10T14:33:34.620Z,995.09
2018-08-10T14:34:37.279Z,995.11
2018-08-10T14:35:42.849Z,995.03
2018-08-10T14:36:42.213Z,995.08
2018-08-10T14:37:33.311Z,995.17
2018-08-10T14:38:35.210Z,995.12
2018-08-10T14:41:56.083Z,995.07
2018-08-10T14:42:57.939Z,995.08
2018-08-10T14:44:26.014Z,995.06
2018-08-10T14:44:57.785Z,995.04
2018-08-10T14:47:03.039Z,995.15
2018-08-10T14:48:57.796Z,995.11
2018-08-10T14:50:00.000Z,995.12
2018-08-10T14:50:57.231Z,995.12
2018-08-10T14:51:57.868Z,995.12
2018-08-10T14:53:57.233Z,995.05
2018-08-10T14:54:56.559Z,995.03
2018-08-10T14:55:55.631Z,995.05
2018-08-10T14:56:55.924Z,995.00
2018-08-10T14:57:56.047Z,995.01
2018-08-10T14:58:56.141Z,995.07
2018-08-10T14:59:57.513Z,995.05
2018-08-10T15:01:56.710Z,995.04
2018-08-10T15:02:56.921Z,995.07
2018-08-10T15:03:56.968Z,994.98
2018-08-10T15:04:57.293Z,995.01
2018-08-10T15:05:57.390Z,994.99
2018-08-10T15:06:57.564Z,995.00
2018-08-10T15:07:57.748Z,995.03
2018-08-10T15:08:57.964Z,995.04
2018-08-10T15:09:58.158Z,995.08
2018-08-10T15:10:58.271Z,995.07
2018-08-10T15:12:11.974Z,995.22
2018-08-10T15:12:59.145Z,995.21
2018-08-10T15:13:58.831Z,995.03
2018-08-10T15:14:59.192Z,994.95
2018-08-10T15:15:59.126Z,994.82
2018-08-10T15:16:59.712Z,994.99
2018-08-10T15:17:59.568Z,994.96
2018-08-10T15:19:00.019Z,994.91
2018-08-10T15:20:02.461Z,994.90
2018-08-10T15:21:00.113Z,994.91
2018-08-10T15:22:00.318Z,994.87
2018-08-10T15:23:00.592Z,994.91
2018-08-10T15:24:00.691Z,994.84
2018-08-10T15:25:01.009Z,994.78
2018-08-10T15:26:01.003Z,994.79
2018-08-10T15:27:01.202Z,994.83
2018-08-10T15:28:01.581Z,994.73
2018-08-10T15:29:01.616Z,994.78
2018-08-10T15:30:02.634Z,994.79
2018-08-10T15:31:01.814Z,994.89
2018-08-10T15:32:02.816Z,994.99
2018-08-10T15:33:02.336Z,994.96
2018-08-10T15:34:02.409Z,994.96
2018-08-10T15:37:42.334Z,994.74
2018-08-10T15:39:50.373Z,994.79
2018-08-10T15:40:39.934Z,994.52
2018-08-10T15:41:42.271Z,994.54
2018-08-10T15:44:40.903Z,994.55
2018-08-10T15:45:38.846Z,994.53
2018-08-10T15:46:42.418Z,994.58
2018-08-10T15:48:39.026Z,994.71
2018-08-10T15:49:38.855Z,994.71
2018-08-10T15:50:39.127Z,994.74
2018-08-10T15:51:39.808Z,994.56
2018-08-10T15:52:39.394Z,994.53
2018-08-10T15:53:39.589Z,994.56
2018-08-10T15:54:39.609Z,994.49
2018-08-10T15:58:43.206Z,994.54
2018-08-10T16:01:43.438Z,994.57
2018-08-10T16:02:42.291Z,994.69
2018-08-10T16:03:41.427Z,994.57
2018-08-10T16:04:45.451Z,994.57
2018-08-10T16:09:33.857Z,994.49
2018-08-10T16:10:26.494Z,994.44
2018-08-10T16:11:27.599Z,994.47
2018-08-10T16:12:25.591Z,994.44
2018-08-10T16:13:25.712Z,994.43
2018-08-10T16:14:26.879Z,994.53
2018-08-10T16:15:25.925Z,994.49
2018-08-10T16:17:26.089Z,994.48
2018-08-10T16:18:27.042Z,994.48
2018-08-10T16:20:26.643Z,994.47
2018-08-10T16:21:26.631Z,994.42
2018-08-10T16:22:27.042Z,994.41
2018-08-10T16:23:28.715Z,994.39
2018-08-10T16:25:28.441Z,994.42
2018-08-10T16:26:27.525Z,994.40
2018-08-10T16:27:27.557Z,994.36
2018-08-10T16:28:28.759Z,994.31
2018-08-10T16:29:28.027Z,994.32
2018-08-10T16:34:33.523Z,994.39
2018-08-10T16:35:59.956Z,994.47
2018-08-10T16:36:59.604Z,994.47
2018-08-10T16:37:59.860Z,994.43
2018-08-10T16:39:00.453Z,994.38
2018-08-10T16:48:19.332Z,994.37
2018-08-10T17:01:20.881Z,994.45
2018-08-10T17:23:48.197Z,994.39
2018-08-10T19:38:59.778Z,994.47
2018-08-10T19:39:59.164Z,994.49
2018-08-10T20:22:53.114Z,994.57
2018-08-10T20:37:46.858Z,994.61
2018-08-10T20:38:36.660Z,994.61
2018-08-10T20:39:36.828Z,994.58
2018-08-10T20:42:15.261Z,994.57
2018-08-10T20:43:08.183Z,994.55
2018-08-10T20:44:08.248Z,994.58
2018-08-10T20:45:08.770Z,994.52
2018-08-10T20:46:07.535Z,994.57
2018-08-10T20:47:06.774Z,994.57
2018-08-10T20:51:59.881Z,994.54
2018-08-10T20:54:08.629Z,994.52
2018-08-10T20:54:44.929Z,994.50
2018-08-10T21:05:11.362Z,994.53
2018-08-10T21:14:27.486Z,994.41
2018-08-10T21:15:51.891Z,994.42
2018-08-10T21:20:38.434Z,994.39
2018-08-10T21:21:45.252Z,994.40
2018-08-10T21:22:33.469Z,994.40
2018-08-10T21:23:34.112Z,994.41
2018-08-10T21:24:34.401Z,994.40
2018-08-10T21:25:42.688Z,994.42
